Time;durP1;ratioP1;P1;durP2;ratioP2;P2;SDS_P1;SDS_P2;PMS_P1;PMS_P2;Temp;Humidity;BMP_temperature;BMP_pressure;BME280_temperature;BME280_humidity;BME280_pressure;Samples;Min_cycle;Max_cycle;Signal;HPM_P1;HPM_P2
2021/09/14 00:01:58;;;;;;;37.77;24.40;;;14.80;99.90;;;;;;5052974;28;20741;-77
2021/09/14 00:04:26;;;;;;;38.50;25.07;;;14.80;99.90;;;;;;5052628;28;20207;-77
2021/09/14 00:06:53;;;;;;;37.47;25.07;;;14.90;99.90;;;;;;5054224;28;20621;-77
2021/09/14 00:09:20;;;;;;;35.70;24.70;;;14.90;99.90;;;;;;5056945;28;20312;-77
2021/09/14 00:11:47;;;;;;;39.63;25.47;;;14.90;99.90;;;;;;5054113;28;20642;-77
2021/09/14 00:14:14;;;;;;;39.17;25.07;;;14.80;99.90;;;;;;5054942;28;20199;-77
2021/09/14 00:16:41;;;;;;;42.87;26.70;;;14.80;99.90;;;;;;5053257;28;20562;-77
2021/09/14 00:19:07;;;;;;;40.20;26.20;;;14.60;99.90;;;;;;5053177;28;20228;-77
2021/09/14 00:21:36;;;;;;;37.20;25.97;;;14.40;99.90;;;;;;5055189;28;20207;-77
2021/09/14 00:24:03;;;;;;;40.80;25.30;;;14.20;99.90;;;;;;5055149;28;20196;-77
2021/09/14 00:26:30;;;;;;;39.63;25.60;;;14.30;99.90;;;;;;5056117;28;20291;-77
2021/09/14 00:28:56;;;;;;;38.03;25.13;;;14.50;99.90;;;;;;5052488;28;20315;-77
2021/09/14 00:31:23;;;;;;;37.30;26.07;;;14.50;99.90;;;;;;5052888;28;20204;-77
2021/09/14 00:33:50;;;;;;;38.07;25.73;;;14.60;99.90;;;;;;5056055;28;20290;-77
2021/09/14 00:36:17;;;;;;;37.37;24.97;;;14.40;99.90;;;;;;5052161;28;20307;-77
2021/09/14 00:38:45;;;;;;;41.03;26.50;;;14.30;99.90;;;;;;5071751;28;20204;-76
2021/09/14 00:41:12;;;;;;;38.67;26.47;;;14.30;99.90;;;;;;5060078;28;20196;-77
2021/09/14 00:43:39;;;;;;;37.07;25.57;;;14.30;99.90;;;;;;5063001;28;20202;-76
2021/09/14 00:46:07;;;;;;;40.43;26.77;;;14.30;99.90;;;;;;5069075;28;20201;-77
2021/09/14 00:48:33;;;;;;;41.83;26.33;;;14.20;99.90;;;;;;5063205;28;20318;-77
2021/09/14 00:51:00;;;;;;;43.67;26.17;;;14.30;99.90;;;;;;5063391;28;20211;-78
2021/09/14 00:53:28;;;;;;;40.23;26.83;;;14.20;99.90;;;;;;5059615;28;20210;-77
2021/09/14 00:55:58;;;;;;;38.23;25.00;;;14.20;99.90;;;;;;5065361;28;20282;-77
2021/09/14 00:58:25;;;;;;;37.83;25.13;;;14.10;99.90;;;;;;5059288;28;20196;-77
2021/09/14 01:00:52;;;;;;;36.13;24.43;;;13.90;99.90;;;;;;5064824;28;20202;-77
2021/09/14 01:03:19;;;;;;;36.60;25.37;;;13.90;99.90;;;;;;5059518;28;20330;-77
2021/09/14 01:05:46;;;;;;;44.97;26.70;;;13.90;99.90;;;;;;5063019;28;20214;-77
2021/09/14 01:08:13;;;;;;;36.40;25.23;;;13.90;99.90;;;;;;5061403;28;20208;-77
2021/09/14 01:10:40;;;;;;;41.33;25.17;;;13.90;99.90;;;;;;5061362;28;20291;-77
2021/09/14 01:13:08;;;;;;;47.80;26.33;;;13.90;99.90;;;;;;5063283;28;20286;-77
2021/09/14 01:15:35;;;;;;;40.37;26.57;;;13.80;99.90;;;;;;5072521;28;20282;-77
2021/09/14 01:18:03;;;;;;;40.77;26.37;;;13.90;99.90;;;;;;5072932;28;20289;-77
2021/09/14 01:20:31;;;;;;;43.93;28.07;;;13.80;99.90;;;;;;5068224;28;20199;-77
2021/09/14 01:22:59;;;;;;;38.60;25.50;;;13.70;99.90;;;;;;5076026;28;20727;-77
2021/09/14 01:25:26;;;;;;;42.47;26.60;;;13.70;99.90;;;;;;5076299;28;20199;-77
2021/09/14 01:27:56;;;;;;;44.13;27.00;;;13.70;99.90;;;;;;5076143;28;20286;-77
2021/09/14 01:30:23;;;;;;;46.30;28.10;;;13.60;99.90;;;;;;5076110;28;20235;-77
2021/09/14 01:32:53;;;;;;;44.93;27.97;;;13.60;99.90;;;;;;5075691;28;20206;-77
2021/09/14 01:35:23;;;;;;;41.90;27.43;;;13.60;99.90;;;;;;5075684;28;20253;-77
2021/09/14 01:37:50;;;;;;;44.70;28.70;;;13.60;99.90;;;;;;5075846;28;20204;-77
2021/09/14 01:40:19;;;;;;;44.07;27.07;;;13.60;99.90;;;;;;5076210;28;20564;-77
2021/09/14 01:42:46;;;;;;;45.70;28.13;;;13.60;99.90;;;;;;5075568;28;20577;-77
2021/09/14 01:45:15;;;;;;;40.33;26.77;;;13.60;99.90;;;;;;5076414;28;20209;-77
2021/09/14 01:47:43;;;;;;;40.07;26.60;;;13.60;99.90;;;;;;5075223;28;20243;-77
2021/09/14 01:50:12;;;;;;;44.87;28.23;;;13.70;99.90;;;;;;5067082;28;20232;-77
2021/09/14 01:52:40;;;;;;;46.13;27.70;;;13.70;99.90;;;;;;5065400;28;20208;-77
2021/09/14 01:55:10;;;;;;;42.97;28.03;;;13.70;99.90;;;;;;5068666;28;20667;-77
2021/09/14 01:57:40;;;;;;;49.50;27.90;;;13.60;99.90;;;;;;5069986;28;20657;-77
2021/09/14 02:00:13;;;;;;;49.23;29.43;;;13.70;99.90;;;;;;5073026;28;20204;-77
2021/09/14 02:02:57;;;;;;;51.47;28.73;;;13.70;99.90;;;;;;5070235;28;20204;-77
2021/09/14 02:05:38;;;;;;;49.00;29.27;;;13.80;99.90;;;;;;5073072;28;20281;-77
2021/09/14 02:30:16;;;;;;;55.20;31.70;;;13.40;99.90;;;;;;5030384;28;20618;-77
2021/09/14 02:38:27;;;;;;;54.07;31.17;;;13.30;99.90;;;;;;5075055;28;20206;-77
2021/09/14 02:43:50;;;;;;;50.83;31.57;;;13.30;99.90;;;;;;5071687;28;20225;-78
2021/09/14 03:00:00;;;;;;;58.60;33.17;;;13.40;99.90;;;;;;5074558;28;20195;-77
2021/09/14 03:02:28;;;;;;;60.50;32.50;;;13.50;99.90;;;;;;5074357;28;20202;-77
2021/09/14 03:04:55;;;;;;;58.43;33.27;;;13.40;99.90;;;;;;5074471;28;20238;-77
2021/09/14 03:07:21;;;;;;;59.47;32.57;;;13.50;99.90;;;;;;5074082;28;20572;-77
2021/09/14 03:09:48;;;;;;;57.43;33.27;;;13.50;99.90;;;;;;5074759;28;20310;-77
2021/09/14 03:12:15;;;;;;;51.80;32.33;;;13.50;99.90;;;;;;5074130;28;20210;-77
2021/09/14 03:14:44;;;;;;;56.53;32.07;;;13.40;99.90;;;;;;5074352;28;20291;-77
2021/09/14 03:17:11;;;;;;;59.07;32.63;;;13.40;99.90;;;;;;5074138;28;20558;-77
2021/09/14 03:19:39;;;;;;;52.60;31.63;;;13.30;99.90;;;;;;5074143;28;20204;-77
2021/09/14 03:22:06;;;;;;;56.77;33.67;;;13.40;99.90;;;;;;5074244;28;20206;-77
2021/09/14 03:24:33;;;;;;;55.77;33.20;;;13.30;99.90;;;;;;5074470;28;20243;-77
2021/09/14 03:26:59;;;;;;;58.47;34.17;;;13.30;99.90;;;;;;5073607;28;20212;-78
2021/09/14 03:29:26;;;;;;;64.83;35.13;;;13.30;99.90;;;;;;5074233;28;20225;-78
2021/09/14 03:31:53;;;;;;;62.43;36.20;;;13.40;99.90;;;;;;5073373;28;20211;-77
2021/09/14 03:34:20;;;;;;;63.33;36.77;;;13.40;99.90;;;;;;5074259;28;20203;-77
2021/09/14 03:36:48;;;;;;;64.97;36.73;;;13.50;99.90;;;;;;5073550;28;20243;-77
2021/09/14 03:39:15;;;;;;;65.97;37.47;;;13.40;99.90;;;;;;5073914;28;20317;-77
2021/09/14 03:41:42;;;;;;;71.73;38.47;;;13.40;99.90;;;;;;5073739;28;20200;-78
2021/09/14 03:44:09;;;;;;;67.23;36.93;;;13.30;99.90;;;;;;5073719;28;20641;-77
2021/09/14 03:46:35;;;;;;;75.57;38.67;;;13.20;99.90;;;;;;5073415;28;20301;-77
2021/09/14 03:49:03;;;;;;;70.57;37.77;;;13.20;99.90;;;;;;5073739;28;20241;-77
2021/09/14 03:51:29;;;;;;;72.70;39.37;;;13.20;99.90;;;;;;5073593;28;20317;-77
2021/09/14 03:53:58;;;;;;;70.10;39.40;;;13.20;99.90;;;;;;5073546;28;20203;-77
2021/09/14 03:56:25;;;;;;;74.83;38.03;;;13.30;99.90;;;;;;5073365;28;20218;-77
2021/09/14 03:58:51;;;;;;;69.87;38.53;;;13.30;99.90;;;;;;5073390;28;20206;-77
2021/09/14 04:01:18;;;;;;;66.37;36.93;;;13.30;99.90;;;;;;5073525;28;20231;-77
2021/09/14 04:03:51;;;;;;;72.50;36.93;;;13.40;99.90;;;;;;5073451;28;20296;-77
2021/09/14 04:06:34;;;;;;;65.30;36.77;;;13.50;99.90;;;;;;5073586;28;20199;-77
2021/09/14 04:09:03;;;;;;;70.20;36.43;;;13.50;99.90;;;;;;5073413;28;20218;-77
2021/09/14 04:11:30;;;;;;;70.00;36.50;;;13.50;99.90;;;;;;5059759;28;20214;-77
2021/09/14 04:13:57;;;;;;;67.57;36.13;;;13.40;99.90;;;;;;5073480;28;20203;-77
2021/09/14 04:16:24;;;;;;;68.70;35.77;;;13.30;99.90;;;;;;5073148;28;20199;-77
2021/09/14 04:18:51;;;;;;;63.93;35.33;;;13.30;99.90;;;;;;5073491;28;20290;-77
2021/09/14 04:21:18;;;;;;;66.70;35.80;;;13.40;99.90;;;;;;5072777;28;20576;-77
2021/09/14 04:23:45;;;;;;;63.70;35.03;;;13.50;99.90;;;;;;5073162;28;20206;-77
2021/09/14 04:26:14;;;;;;;66.97;36.33;;;13.50;99.90;;;;;;5074270;28;20574;-77
2021/09/14 04:28:41;;;;;;;64.23;36.30;;;13.50;99.90;;;;;;5082358;28;20209;-77
2021/09/14 04:31:07;;;;;;;69.20;36.23;;;13.40;99.90;;;;;;5073220;28;20258;-77
2021/09/14 04:33:34;;;;;;;68.90;36.93;;;13.30;99.90;;;;;;5076203;28;20274;-77
2021/09/14 04:36:01;;;;;;;69.20;36.07;;;13.20;99.90;;;;;;5079368;28;20290;-77
2021/09/14 04:38:28;;;;;;;63.87;36.37;;;13.20;99.90;;;;;;5072440;28;20207;-77
2021/09/14 04:40:55;;;;;;;67.53;37.37;;;13.20;99.90;;;;;;5073307;28;20200;-77
2021/09/14 04:43:23;;;;;;;63.77;35.63;;;13.30;99.90;;;;;;5072626;28;20613;-77
2021/09/14 04:45:50;;;;;;;63.93;35.83;;;13.20;99.90;;;;;;5072032;28;20203;-77
2021/09/14 04:48:17;;;;;;;67.67;36.37;;;13.10;99.90;;;;;;5072455;28;20294;-77
2021/09/14 04:50:44;;;;;;;68.50;36.03;;;13.10;99.90;;;;;;5070127;28;20695;-77
2021/09/14 04:53:11;;;;;;;66.30;35.90;;;13.00;99.90;;;;;;5061882;28;20207;-77
2021/09/14 04:55:38;;;;;;;64.73;37.20;;;13.00;99.90;;;;;;5072748;28;20290;-78
2021/09/14 04:58:05;;;;;;;72.30;37.97;;;13.00;99.90;;;;;;5070181;28;20650;-77
2021/09/14 05:00:33;;;;;;;65.07;36.33;;;13.00;99.90;;;;;;5057958;28;20290;-77
2021/09/14 05:03:00;;;;;;;70.83;35.60;;;13.00;99.90;;;;;;5059964;28;20298;-77
2021/09/14 05:05:27;;;;;;;67.87;36.57;;;13.10;99.90;;;;;;5064628;28;20229;-77
2021/09/14 05:07:54;;;;;;;65.13;37.03;;;13.10;99.90;;;;;;5067010;28;20278;-77
2021/09/14 05:10:21;;;;;;;68.97;37.17;;;13.10;99.90;;;;;;5053688;28;20220;-77
2021/09/14 05:12:48;;;;;;;74.53;39.03;;;13.20;99.90;;;;;;5064860;28;20575;-78
2021/09/14 05:15:15;;;;;;;72.00;37.87;;;13.10;99.90;;;;;;5064341;28;20206;-77
2021/09/14 05:17:43;;;;;;;67.17;36.83;;;13.20;99.90;;;;;;5058349;28;20667;-77
2021/09/14 05:20:13;;;;;;;69.50;36.97;;;13.30;99.90;;;;;;5063362;28;20290;-78
2021/09/14 05:22:40;;;;;;;79.13;39.03;;;13.40;99.90;;;;;;5072874;28;20203;-77
2021/09/14 05:25:08;;;;;;;70.73;38.93;;;13.30;99.90;;;;;;5063859;28;20227;-77
2021/09/14 05:27:35;;;;;;;74.30;39.13;;;13.30;99.90;;;;;;5067014;28;20203;-77
2021/09/14 05:30:02;;;;;;;79.87;40.17;;;13.20;99.90;;;;;;5067218;28;20225;-77
2021/09/14 05:32:30;;;;;;;74.50;40.33;;;13.10;99.90;;;;;;5071415;28;20606;-77
2021/09/14 05:34:58;;;;;;;69.47;38.27;;;13.10;99.90;;;;;;5070915;28;20210;-77
2021/09/14 05:37:25;;;;;;;71.93;38.23;;;13.20;99.90;;;;;;5069296;28;20309;-77
2021/09/14 05:39:52;;;;;;;71.63;39.27;;;13.20;99.90;;;;;;5070652;28;20248;-77
2021/09/14 05:42:19;;;;;;;77.60;39.43;;;13.30;99.90;;;;;;5065824;28;20671;-78
2021/09/14 05:44:46;;;;;;;80.43;39.47;;;13.40;99.90;;;;;;5065056;28;20354;-78
2021/09/14 05:47:13;;;;;;;73.40;38.77;;;13.40;99.90;;;;;;5070721;28;20661;-78
2021/09/14 05:49:40;;;;;;;71.50;38.57;;;13.40;99.90;;;;;;5071529;28;20223;-77
2021/09/14 05:52:09;;;;;;;74.07;38.57;;;13.40;99.90;;;;;;5089307;28;20206;-78
2021/09/14 05:54:36;;;;;;;66.17;37.80;;;13.40;99.90;;;;;;5091834;28;20201;-77
2021/09/14 05:57:03;;;;;;;73.57;37.37;;;13.40;99.90;;;;;;5082856;28;20204;-77
2021/09/14 05:59:29;;;;;;;67.77;38.03;;;13.50;99.90;;;;;;5071972;28;20290;-77
2021/09/14 06:01:56;;;;;;;68.57;38.23;;;13.60;99.90;;;;;;5072345;28;20293;-77
2021/09/14 06:04:23;;;;;;;64.83;36.63;;;13.60;99.90;;;;;;5071529;28;20739;-76
2021/09/14 06:06:50;;;;;;;70.13;36.03;;;13.70;99.90;;;;;;5075690;28;20203;-77
2021/09/14 06:09:18;;;;;;;65.40;36.30;;;13.80;99.90;;;;;;5073902;28;20290;-78
2021/09/14 06:11:45;;;;;;;70.43;37.00;;;13.80;99.90;;;;;;5055277;28;20319;-77
2021/09/14 06:14:12;;;;;;;64.73;35.43;;;13.90;99.90;;;;;;5058664;28;20629;-77
2021/09/14 06:16:39;;;;;;;69.27;36.83;;;13.80;99.90;;;;;;5075433;28;20233;-76
2021/09/14 06:19:06;;;;;;;69.13;37.63;;;13.80;99.90;;;;;;5075450;28;20230;-77
2021/09/14 06:21:37;;;;;;;62.33;36.37;;;13.90;99.90;;;;;;5075877;28;20245;-76
2021/09/14 06:24:05;;;;;;;62.33;36.60;;;14.00;99.90;;;;;;5081867;28;20278;-76
2021/09/14 06:26:33;;;;;;;58.77;35.50;;;14.10;99.90;;;;;;5079107;28;20282;-76
2021/09/14 06:29:00;;;;;;;58.80;34.23;;;14.30;99.90;;;;;;5075805;28;20204;-76
2021/09/14 06:31:27;;;;;;;57.27;34.37;;;14.40;99.90;;;;;;5074389;28;20662;-77
2021/09/14 06:33:54;;;;;;;57.17;33.03;;;14.40;99.90;;;;;;5055184;28;20216;-77
2021/09/14 06:36:21;;;;;;;56.83;32.43;;;14.50;99.90;;;;;;5058403;28;20202;-77
2021/09/14 06:38:48;;;;;;;50.83;32.20;;;14.60;99.90;;;;;;5074844;28;20621;-77
2021/09/14 06:41:15;;;;;;;51.03;31.03;;;14.60;99.90;;;;;;5075368;28;20195;-77
2021/09/14 06:43:43;;;;;;;54.87;30.93;;;14.70;99.90;;;;;;5074950;28;20199;-76
2021/09/14 06:46:10;;;;;;;52.10;33.03;;;14.80;99.90;;;;;;5074625;28;20763;-76
2021/09/14 06:48:37;;;;;;;47.93;29.93;;;15.00;99.90;;;;;;5074723;28;20286;-77
2021/09/14 06:51:04;;;;;;;51.43;31.30;;;15.10;99.90;;;;;;5074603;28;20219;-77
2021/09/14 06:53:31;;;;;;;45.43;29.53;;;15.10;99.90;;;;;;5074869;28;20210;-77
2021/09/14 06:55:58;;;;;;;51.80;31.10;;;15.20;99.90;;;;;;5066257;28;20282;-77
2021/09/14 06:58:25;;;;;;;50.13;30.50;;;15.40;99.90;;;;;;5087683;28;20677;-77
2021/09/14 07:00:53;;;;;;;44.20;29.43;;;15.40;99.90;;;;;;5074939;28;20195;-77
2021/09/14 07:03:20;;;;;;;49.10;29.73;;;15.50;99.90;;;;;;5074843;28;20253;-77
2021/09/14 07:05:47;;;;;;;44.73;29.00;;;15.50;99.90;;;;;;5074531;28;20203;-77
2021/09/14 07:08:14;;;;;;;43.30;27.90;;;15.50;99.90;;;;;;5074438;28;20290;-77
2021/09/14 07:10:41;;;;;;;44.30;28.47;;;15.50;99.90;;;;;;5074763;28;20238;-77
2021/09/14 07:13:08;;;;;;;43.63;28.20;;;15.40;99.90;;;;;;5075075;28;20286;-77
2021/09/14 07:15:35;;;;;;;41.70;27.47;;;15.50;99.90;;;;;;5074130;28;20678;-77
2021/09/14 07:18:03;;;;;;;39.90;27.70;;;15.60;99.90;;;;;;5075025;28;20199;-77
2021/09/14 07:20:31;;;;;;;47.10;27.90;;;15.70;99.90;;;;;;5074537;28;20238;-76
2021/09/14 07:22:58;;;;;;;43.53;28.03;;;15.80;99.90;;;;;;5074701;28;20286;-76
2021/09/14 07:25:25;;;;;;;41.00;27.10;;;15.90;99.90;;;;;;5074304;28;20202;-76
2021/09/14 07:27:52;;;;;;;43.07;27.57;;;16.20;99.90;;;;;;5073969;28;20290;-77
2021/09/14 07:30:19;;;;;;;38.13;26.60;;;16.60;99.90;;;;;;5074053;28;20224;-76
2021/09/14 07:32:47;;;;;;;38.57;26.80;;;16.80;99.90;;;;;;5074279;28;20223;-77
2021/09/14 07:35:15;;;;;;;40.33;26.03;;;17.00;99.90;;;;;;5074137;28;20253;-76
2021/09/14 07:37:42;;;;;;;41.90;26.77;;;17.10;99.90;;;;;;5074022;28;20610;-77
2021/09/14 07:40:09;;;;;;;40.67;25.37;;;16.90;99.90;;;;;;5073633;28;20290;-77
2021/09/14 07:42:36;;;;;;;36.70;24.60;;;16.90;99.90;;;;;;5073945;28;20239;-77
2021/09/14 07:45:03;;;;;;;34.77;25.27;;;16.90;99.90;;;;;;5074095;28;20283;-76
2021/09/14 07:47:30;;;;;;;35.73;25.27;;;17.10;99.90;;;;;;5070202;28;20728;-76
2021/09/14 07:49:57;;;;;;;36.13;25.20;;;17.30;99.90;;;;;;5072852;28;20199;-77
2021/09/14 07:52:25;;;;;;;33.53;23.47;;;17.50;99.90;;;;;;5072253;28;20230;-77
2021/09/14 07:54:52;;;;;;;36.73;24.63;;;17.80;99.90;;;;;;5073685;28;20204;-76
2021/09/14 07:57:19;;;;;;;33.53;23.17;;;18.00;99.90;;;;;;5073933;28;20567;-77
2021/09/14 07:59:46;;;;;;;36.83;23.57;;;18.10;99.90;;;;;;5073993;28;20568;-76
2021/09/14 08:02:12;;;;;;;33.80;22.73;;;18.10;99.90;;;;;;5073983;28;20242;-76
2021/09/14 08:04:39;;;;;;;37.97;22.70;;;18.10;99.90;;;;;;5074114;28;20195;-77
2021/09/14 08:07:06;;;;;;;29.47;21.83;;;18.30;99.90;;;;;;5073901;28;20294;-76
2021/09/14 08:09:34;;;;;;;36.07;23.13;;;18.70;99.90;;;;;;5073166;28;20195;-77
2021/09/14 08:12:01;;;;;;;29.13;22.50;;;18.80;99.90;;;;;;5073669;28;20316;-77
2021/09/14 08:14:28;;;;;;;37.40;22.13;;;18.80;99.90;;;;;;5073524;28;20231;-77
2021/09/14 08:16:55;;;;;;;32.87;22.50;;;18.80;99.90;;;;;;5072912;28;20744;-77
2021/09/14 08:19:22;;;;;;;31.70;21.63;;;18.90;99.90;;;;;;5073183;28;20294;-76
2021/09/14 08:21:49;;;;;;;28.43;21.60;;;18.90;99.90;;;;;;5073522;28;20286;-76
2021/09/14 08:24:16;;;;;;;31.90;21.40;;;19.10;99.90;;;;;;5073377;28;20291;-76
2021/09/14 08:26:44;;;;;;;30.50;21.90;;;19.30;99.90;;;;;;5073168;28;20306;-77
2021/09/14 08:29:11;;;;;;;29.73;21.33;;;19.50;99.90;;;;;;5072549;28;20664;-77
2021/09/14 08:31:38;;;;;;;30.93;22.40;;;19.80;99.90;;;;;;5073407;28;20316;-77
2021/09/14 08:34:05;;;;;;;27.40;21.37;;;19.80;99.90;;;;;;5073256;28;20239;-77
2021/09/14 08:36:32;;;;;;;31.53;21.40;;;20.10;99.90;;;;;;5073103;28;20210;-77
2021/09/14 08:38:59;;;;;;;26.53;20.37;;;20.10;99.90;;;;;;5073398;28;20200;-77
2021/09/14 08:41:26;;;;;;;31.37;20.80;;;19.90;99.90;;;;;;5073358;28;20200;-77
2021/09/14 08:43:55;;;;;;;33.17;20.07;;;20.00;99.90;;;;;;5072894;28;20621;-77
2021/09/14 08:46:23;;;;;;;29.40;20.10;;;20.10;99.90;;;;;;5073002;28;20214;-77
2021/09/14 08:48:51;;;;;;;27.20;20.30;;;20.20;99.90;;;;;;5073191;28;20204;-77
2021/09/14 08:51:18;;;;;;;26.57;19.63;;;20.30;99.90;;;;;;5072924;28;20314;-77
2021/09/14 08:53:45;;;;;;;25.90;19.53;;;20.60;99.90;;;;;;5072920;28;20289;-77
2021/09/14 08:56:13;;;;;;;26.43;20.03;;;20.80;99.90;;;;;;5072997;28;20338;-77
2021/09/14 08:58:40;;;;;;;24.97;18.73;;;20.80;99.90;;;;;;5073234;28;20199;-77
2021/09/14 09:01:13;;;;;;;24.93;18.93;;;21.10;99.90;;;;;;5073107;28;20192;-77
2021/09/14 09:03:40;;;;;;;23.50;17.37;;;21.50;99.90;;;;;;5072716;28;20206;-77
2021/09/14 09:06:07;;;;;;;22.85;17.13;;;21.90;99.90;;;;;;5072305;28;20200;-77
2021/09/14 09:08:35;;;;;;;23.80;16.67;;;22.40;99.90;;;;;;5072535;28;20229;-77
2021/09/14 09:11:04;;;;;;;23.60;16.90;;;22.50;99.90;;;;;;5072599;28;20307;-77
2021/09/14 09:13:33;;;;;;;19.00;14.43;;;22.70;99.90;;;;;;5072598;28;20195;-77
2021/09/14 09:16:00;;;;;;;23.60;15.40;;;23.10;99.90;;;;;;5072327;28;20287;-77
2021/09/14 09:18:28;;;;;;;19.67;15.13;;;23.50;99.90;;;;;;5072458;28;20287;-76
2021/09/14 09:21:02;;;;;;;26.25;15.45;;;23.60;99.90;;;;;;5073013;28;20283;-77
2021/09/14 09:23:29;;;;;;;23.02;15.70;;;23.60;99.90;;;;;;5072092;28;20599;-76
2021/09/14 09:26:06;;;;;;;20.60;14.38;;;23.50;99.90;;;;;;5076295;28;20552;-79
2021/09/14 09:28:35;;;;;;;19.45;13.95;;;23.80;99.90;;;;;;5078802;28;20589;-81
2021/09/14 09:31:09;;;;;;;20.58;13.48;;;24.50;99.90;;;;;;5082052;28;20306;-76
2021/09/14 09:33:38;;;;;;;26.08;13.10;;;24.80;99.90;;;;;;5078994;28;20225;-76
2021/09/14 09:36:06;;;;;;;19.40;12.40;;;25.30;99.90;;;;;;5081340;28;20229;-77
2021/09/14 09:38:45;;;;;;;15.73;11.90;;;25.50;99.90;;;;;;5078600;28;20274;-76
2021/09/14 09:41:16;;;;;;;17.27;12.10;;;26.10;99.90;;;;;;5084731;28;20667;-76
2021/09/14 09:43:42;;;;;;;15.10;11.63;;;26.60;99.90;;;;;;5085485;28;20293;-77
2021/09/14 09:46:11;;;;;;;16.92;10.93;;;26.60;99.90;;;;;;5086641;28;20290;-76
2021/09/14 09:48:40;;;;;;;19.27;10.88;;;27.30;99.90;;;;;;5085421;28;20759;-76
2021/09/14 09:51:07;;;;;;;18.60;10.82;;;27.70;99.90;;;;;;5084864;28;20221;-76
2021/09/14 09:53:35;;;;;;;13.75;10.05;;;27.70;99.90;;;;;;5082309;28;20536;-76
2021/09/14 09:56:02;;;;;;;14.00;9.98;;;27.50;99.90;;;;;;5085472;28;20226;-77
2021/09/14 09:58:30;;;;;;;15.95;9.90;;;27.40;99.90;;;;;;5089634;28;20190;-77
2021/09/14 10:01:02;;;;;;;11.85;9.48;;;27.60;99.90;;;;;;5079166;28;20291;-77
2021/09/14 10:03:32;;;;;;;15.63;10.15;;;28.50;99.90;;;;;;5069393;28;20199;-76
2021/09/14 10:06:08;;;;;;;12.15;8.85;;;28.70;99.90;;;;;;5058726;28;20234;-76
2021/09/14 10:08:36;;;;;;;11.05;8.60;;;28.50;99.90;;;;;;5059762;28;20250;-76
2021/09/14 10:11:03;;;;;;;15.35;8.13;;;28.40;99.90;;;;;;5065436;28;20230;-76
2021/09/14 10:13:31;;;;;;;9.05;7.05;;;28.40;99.90;;;;;;5075539;28;20601;-76
2021/09/14 10:15:58;;;;;;;11.00;7.72;;;28.20;99.90;;;;;;5059113;28;20205;-77
2021/09/14 10:18:30;;;;;;;12.63;7.20;;;28.10;99.90;;;;;;5064901;28;20214;-76
2021/09/14 10:20:58;;;;;;;8.98;6.43;;;27.80;99.90;;;;;;5061382;28;20235;-77
2021/09/14 10:23:34;;;;;;;11.45;6.75;;;27.80;99.90;;;;;;5056339;28;20608;-77
2021/09/14 10:26:06;;;;;;;8.68;6.75;;;27.50;99.90;;;;;;5056005;28;20278;-77
2021/09/14 10:28:45;;;;;;;11.35;6.55;;;27.40;99.90;;;;;;5064249;28;20212;-76
2021/09/14 10:31:23;;;;;;;8.32;6.28;;;27.10;99.90;;;;;;5072462;28;20302;-77
2021/09/14 10:34:02;;;;;;;7.43;6.28;;;27.00;99.90;;;;;;5073198;28;20252;-77
2021/09/14 10:36:29;;;;;;;9.40;6.57;;;26.80;99.90;;;;;;5073380;28;20199;-77
2021/09/14 10:38:58;;;;;;;13.95;7.10;;;26.70;99.90;;;;;;5073082;28;20203;-77
2021/09/14 10:41:35;;;;;;;8.02;6.57;;;26.90;99.90;;;;;;5073183;28;20714;-77
2021/09/14 10:44:03;;;;;;;11.48;6.03;;;27.10;99.90;;;;;;5069133;28;20209;-76
2021/09/14 10:46:32;;;;;;;12.45;6.30;;;27.00;99.90;;;;;;5070321;28;20253;-76
2021/09/14 10:48:59;;;;;;;11.95;7.35;;;26.90;99.90;;;;;;5073021;28;20290;-77
2021/09/14 10:51:26;;;;;;;9.60;6.85;;;27.00;99.90;;;;;;5063903;28;20708;-76
2021/09/14 10:53:54;;;;;;;10.82;6.55;;;27.10;99.90;;;;;;5061088;28;20200;-77
2021/09/14 10:56:24;;;;;;;7.93;6.32;;;27.10;99.90;;;;;;5066124;28;20649;-77
2021/09/14 10:58:51;;;;;;;6.82;6.13;;;27.00;99.90;;;;;;5064255;28;20595;-77
2021/09/14 11:01:23;;;;;;;7.97;6.03;;;27.10;99.90;;;;;;5055648;28;20204;-76
2021/09/14 11:03:51;;;;;;;13.13;6.47;;;26.90;99.90;;;;;;5064822;28;20750;-77
2021/09/14 11:06:18;;;;;;;7.25;6.55;;;26.70;99.90;;;;;;5067572;28;20207;-76
2021/09/14 11:08:46;;;;;;;6.63;5.97;;;26.50;99.90;;;;;;5066702;28;20254;-76
2021/09/14 11:11:17;;;;;;;9.20;6.50;;;26.60;99.90;;;;;;5066593;28;20207;-76
2021/09/14 11:13:45;;;;;;;8.98;6.20;;;26.50;99.90;;;;;;5059671;28;20562;-76
2021/09/14 11:16:16;;;;;;;7.03;5.88;;;26.60;99.90;;;;;;5072905;28;20227;-76
2021/09/14 11:18:44;;;;;;;12.48;6.50;;;26.60;99.90;;;;;;5072603;28;20230;-77
2021/09/14 11:21:13;;;;;;;9.52;5.80;;;26.60;99.90;;;;;;5065278;28;20208;-77
2021/09/14 11:23:42;;;;;;;9.55;6.45;;;26.50;99.90;;;;;;5059017;28;20258;-77
2021/09/14 11:26:10;;;;;;;13.40;6.13;;;26.30;99.90;;;;;;5062374;28;20206;-77
2021/09/14 11:28:37;;;;;;;6.32;5.72;;;26.30;99.90;;;;;;5059930;28;20686;-77
2021/09/14 11:31:09;;;;;;;10.07;5.40;;;26.20;99.90;;;;;;5059142;28;20196;-77
2021/09/14 11:33:40;;;;;;;8.05;6.10;;;26.20;99.90;;;;;;5059975;28;20668;-76
2021/09/14 11:36:08;;;;;;;7.93;5.55;;;26.30;99.90;;;;;;5062014;28;20290;-76
2021/09/14 11:38:35;;;;;;;8.77;5.85;;;26.30;99.90;;;;;;5061496;28;20203;-76
2021/09/14 11:41:03;;;;;;;7.30;5.75;;;26.30;99.90;;;;;;5060640;28;20271;-77
2021/09/14 11:43:35;;;;;;;8.93;5.97;;;26.40;99.90;;;;;;5060733;28;20294;-77
2021/09/14 11:46:13;;;;;;;9.27;6.00;;;25.90;99.90;;;;;;5060159;28;20246;-77
2021/09/14 11:48:41;;;;;;;7.40;5.50;;;25.80;99.90;;;;;;5060113;28;20287;-77
2021/09/14 11:51:10;;;;;;;8.25;5.70;;;25.90;99.90;;;;;;5062546;28;20291;-77
2021/09/14 11:53:39;;;;;;;8.68;6.05;;;26.00;99.90;;;;;;5054246;28;20310;-77
2021/09/14 11:56:13;;;;;;;6.97;5.65;;;26.00;99.90;;;;;;5049538;28;20234;-78
2021/09/14 11:58:43;;;;;;;7.75;5.63;;;25.80;99.90;;;;;;5065946;28;20208;-76
2021/09/14 12:01:14;;;;;;;9.25;6.00;;;25.60;99.90;;;;;;5056902;28;20208;-77
2021/09/14 12:03:45;;;;;;;9.13;6.05;;;25.50;99.90;;;;;;5054269;28;20732;-76
2021/09/14 12:06:13;;;;;;;9.23;6.35;;;25.30;99.90;;;;;;5054855;28;20208;-77
2021/09/14 12:08:42;;;;;;;7.28;5.63;;;25.30;99.90;;;;;;5057518;28;20684;-77
2021/09/14 12:11:10;;;;;;;10.15;5.43;;;25.40;99.90;;;;;;5062954;28;20202;-76
2021/09/14 12:13:39;;;;;;;11.18;5.95;;;25.40;99.90;;;;;;5072141;28;20318;-77
2021/09/14 12:16:09;;;;;;;7.95;5.38;;;25.50;99.90;;;;;;5063097;28;20302;-77
2021/09/14 12:18:38;;;;;;;11.13;5.68;;;25.50;99.90;;;;;;5060523;28;20200;-76
2021/09/14 12:21:05;;;;;;;11.10;5.03;;;25.40;99.90;;;;;;5064245;28;20226;-76
2021/09/14 12:23:32;;;;;;;9.02;4.50;;;25.50;99.90;;;;;;5058769;28;20192;-76
2021/09/14 12:25:59;;;;;;;5.65;4.82;;;25.50;99.90;;;;;;5062364;28;20285;-77
2021/09/14 12:28:26;;;;;;;11.77;6.32;;;25.70;99.90;;;;;;5059022;28;20231;-77
2021/09/14 12:30:53;;;;;;;9.75;6.07;;;25.80;99.90;;;;;;5059162;28;20291;-77
2021/09/14 12:33:20;;;;;;;9.63;6.15;;;25.30;99.90;;;;;;5060568;28;20323;-77
2021/09/14 12:35:48;;;;;;;11.43;6.60;;;25.60;99.90;;;;;;5058020;28;20674;-76
2021/09/14 12:38:15;;;;;;;12.70;6.50;;;26.20;99.90;;;;;;5062271;28;20213;-77
2021/09/14 12:40:42;;;;;;;10.48;6.28;;;26.10;99.90;;;;;;5056919;28;20299;-77
2021/09/14 12:43:09;;;;;;;12.35;6.07;;;26.60;99.90;;;;;;5063814;28;20730;-76
2021/09/14 12:45:35;;;;;;;8.20;6.82;;;26.90;99.90;;;;;;5059440;28;20212;-76
2021/09/14 12:48:03;;;;;;;7.07;5.70;;;27.40;99.90;;;;;;5061834;28;20199;-77
2021/09/14 12:50:29;;;;;;;6.97;6.25;;;27.70;99.90;;;;;;5061827;28;20317;-77
2021/09/14 12:52:58;;;;;;;9.15;6.82;;;28.20;99.90;;;;;;5066267;28;20266;-77
2021/09/14 12:55:25;;;;;;;7.47;6.22;;;27.30;99.90;;;;;;5063063;28;20246;-76
2021/09/14 12:57:52;;;;;;;8.32;6.78;;;26.30;99.90;;;;;;5058757;28;20608;-77
2021/09/14 13:00:19;;;;;;;8.55;6.15;;;25.60;99.90;;;;;;5064611;28;20234;-77
2021/09/14 13:02:46;;;;;;;8.50;6.18;;;25.70;99.90;;;;;;5058183;28;20284;-77
2021/09/14 13:05:13;;;;;;;8.63;6.30;;;25.80;99.90;;;;;;5063574;28;20227;-77
2021/09/14 13:07:40;;;;;;;11.48;6.32;;;25.70;99.90;;;;;;5059590;28;20509;-77
2021/09/14 13:10:12;;;;;;;9.98;6.15;;;25.60;99.90;;;;;;5063621;28;20282;-77
2021/09/14 13:12:45;;;;;;;9.45;5.70;;;25.50;99.90;;;;;;5058229;28;20309;-77
2021/09/14 13:17:57;;;;;;;10.73;6.25;;;25.00;99.90;;;;;;5063954;28;20202;-77
2021/09/14 13:20:24;;;;;;;8.35;5.65;;;24.80;99.90;;;;;;5075729;28;20202;-77
2021/09/14 13:22:51;;;;;;;11.85;4.85;;;24.80;99.90;;;;;;5080510;28;20621;-77